Time;durP1;ratioP1;P1;durP2;ratioP2;P2;SDS_P1;SDS_P2;PMS_P1;PMS_P2;Temp;Humidity;BMP_temperature;BMP_pressure;BME280_temperature;BME280_humidity;BME280_pressure;Samples;Min_cycle;Max_cycle;Signal;HPM_P1;HPM_P2
2021/12/07 00:00:57;;;;;;;12.48;11.35;;;-1.80;99.90;;;;;;5144745;27;20543;-59
2021/12/07 00:03:37;;;;;;;11.48;10.57;;;-1.60;99.90;;;;;;5084733;27;20560;-59
2021/12/07 00:06:16;;;;;;;12.05;11.05;;;-1.40;99.90;;;;;;5104604;27;20574;-59
2021/12/07 00:08:56;;;;;;;12.65;11.52;;;-1.40;99.90;;;;;;5084911;27;21076;-59
2021/12/07 00:11:36;;;;;;;12.40;11.40;;;-1.40;99.90;;;;;;5146684;27;20596;-59
2021/12/07 00:14:23;;;;;;;11.32;10.43;;;-1.40;99.90;;;;;;5084256;28;20672;-59
2021/12/07 00:17:03;;;;;;;11.95;10.95;;;-1.50;99.90;;;;;;5084544;28;20648;-59
2021/12/07 00:19:44;;;;;;;13.73;12.63;;;-1.40;99.90;;;;;;5084742;27;20570;-59
2021/12/07 00:22:23;;;;;;;12.18;11.18;;;-1.40;99.90;;;;;;5145721;27;21059;-58
2021/12/07 00:25:04;;;;;;;12.27;11.30;;;-1.50;99.90;;;;;;5084271;28;20668;-59
2021/12/07 00:27:43;;;;;;;11.73;10.82;;;-1.40;99.90;;;;;;5084811;28;20683;-59
2021/12/07 00:30:27;;;;;;;12.38;11.30;;;-1.40;99.90;;;;;;5084711;28;20675;-58
2021/12/07 00:33:12;;;;;;;12.18;11.18;;;-1.40;99.90;;;;;;5125715;27;20540;-58
2021/12/07 00:35:53;;;;;;;11.43;10.55;;;-1.40;99.90;;;;;;5104533;27;20549;-58
2021/12/07 00:38:32;;;;;;;10.98;10.02;;;-1.50;99.90;;;;;;5085117;28;20565;-59
2021/12/07 00:41:12;;;;;;;12.55;11.48;;;-1.60;99.90;;;;;;5084968;28;20668;-59
2021/12/07 00:43:51;;;;;;;10.77;9.98;;;-1.60;99.90;;;;;;5084227;27;20543;-59
2021/12/07 00:46:32;;;;;;;12.75;11.75;;;-1.60;99.90;;;;;;5084181;28;21057;-59
2021/12/07 00:49:12;;;;;;;12.88;11.73;;;-1.50;99.90;;;;;;5105276;27;20873;-59
2021/12/07 00:51:51;;;;;;;11.52;10.63;;;-1.40;99.90;;;;;;5145932;27;20538;-59
2021/12/07 00:54:31;;;;;;;12.75;11.73;;;-1.20;99.90;;;;;;5124468;27;20956;-58
2021/12/07 00:57:11;;;;;;;12.15;11.23;;;-1.10;99.90;;;;;;5084850;28;20679;-59
2021/12/07 00:59:50;;;;;;;11.50;10.65;;;-1.00;99.90;;;;;;5146163;27;21031;-59
2021/12/07 01:02:30;;;;;;;12.80;11.70;;;-1.00;99.90;;;;;;5082639;28;20686;-59
2021/12/07 01:05:16;;;;;;;12.55;11.02;;;-1.00;99.90;;;;;;5083912;28;20679;-58
2021/12/07 01:08:17;;;;;;;12.05;11.05;;;-0.90;99.90;;;;;;5084722;28;21180;-58
2021/12/07 01:25:44;;;;;;;12.75;11.52;;;-0.70;99.90;;;;;;5146064;27;20665;-59
2021/12/07 01:28:30;;;;;;;12.30;11.23;;;-0.70;99.90;;;;;;5146532;27;21039;-58
2021/12/07 01:31:17;;;;;;;13.35;12.18;;;-0.60;99.90;;;;;;5084805;27;20575;-58
2021/12/07 01:34:13;;;;;;;12.82;11.65;;;-0.50;99.90;;;;;;5084537;27;21150;-58
2021/12/07 01:37:10;;;;;;;14.07;12.88;;;-0.40;99.90;;;;;;5085050;28;20967;-58
2021/12/07 01:40:05;;;;;;;13.05;11.95;;;-0.30;99.90;;;;;;5151779;27;20549;-58
2021/12/07 01:43:14;;;;;;;12.63;11.57;;;-0.20;99.90;;;;;;5105205;27;20526;-58
2021/12/07 01:46:23;;;;;;;14.60;13.27;;;-0.20;99.90;;;;;;5105475;27;20658;-56
2021/12/07 01:52:24;;;;;;;13.48;12.27;;;-0.10;99.90;;;;;;5146042;27;20665;-58
2021/12/07 02:01:01;;;;;;;13.63;12.27;;;-0.10;99.90;;;;;;5082980;27;20551;-58
2021/12/07 02:03:42;;;;;;;13.95;12.75;;;-0.10;99.90;;;;;;5084318;27;21083;-59
2021/12/07 02:06:22;;;;;;;13.93;12.63;;;-0.10;99.90;;;;;;5145781;27;20661;-59
2021/12/07 02:09:03;;;;;;;12.50;11.50;;;-0.10;99.90;;;;;;5126022;27;20535;-59
2021/12/07 02:11:48;;;;;;;15.98;12.18;;;-0.10;99.90;;;;;;5084837;27;21015;-57
2021/12/07 02:14:30;;;;;;;15.15;13.88;;;-0.10;99.90;;;;;;5083839;27;20535;-58
2021/12/07 02:17:11;;;;;;;15.18;13.25;;;0.00;99.90;;;;;;5084708;27;20547;-58
2021/12/07 02:19:51;;;;;;;12.13;11.10;;;-0.10;99.90;;;;;;5084624;27;20557;-58
2021/12/07 02:22:30;;;;;;;13.02;11.90;;;-0.10;99.90;;;;;;5084374;27;20560;-58
2021/12/07 02:25:28;;;;;;;13.02;11.95;;;-0.10;99.90;;;;;;5145835;27;21055;-58
2021/12/07 02:28:13;;;;;;;13.43;12.32;;;-0.20;99.90;;;;;;5084353;27;20547;-58
2021/12/07 02:30:52;;;;;;;13.23;12.05;;;-0.10;99.90;;;;;;5091237;27;20676;-58
2021/12/07 02:33:32;;;;;;;13.25;12.15;;;-0.10;99.90;;;;;;5085000;27;20535;-58
2021/12/07 02:36:12;;;;;;;13.38;12.25;;;-0.10;99.90;;;;;;5084403;27;20544;-58
2021/12/07 02:38:52;;;;;;;13.25;12.25;;;0.00;99.90;;;;;;5146747;27;20538;-58
2021/12/07 02:41:31;;;;;;;11.45;10.40;;;0.00;99.90;;;;;;5085051;27;20557;-58
2021/12/07 02:44:11;;;;;;;12.68;11.68;;;0.00;99.90;;;;;;5085080;28;20668;-58
2021/12/07 02:46:51;;;;;;;14.55;13.32;;;0.00;99.90;;;;;;5126202;27;20940;-58
2021/12/07 02:49:31;;;;;;;13.90;12.52;;;0.00;99.90;;;;;;5105364;27;21035;-58
2021/12/07 02:52:12;;;;;;;12.45;11.43;;;0.00;99.90;;;;;;5084703;27;21084;-58
2021/12/07 02:54:51;;;;;;;10.55;9.55;;;0.00;99.90;;;;;;5125055;27;20659;-58
2021/12/07 02:57:31;;;;;;;12.02;10.93;;;0.00;99.90;;;;;;5085301;27;20545;-58
2021/12/07 03:00:17;;;;;;;13.80;12.48;;;0.00;99.90;;;;;;5084417;28;20707;-59
2021/12/07 03:03:01;;;;;;;14.43;13.32;;;0.00;99.90;;;;;;5104571;27;20568;-58
2021/12/07 03:05:48;;;;;;;14.63;13.05;;;0.00;99.90;;;;;;5084505;28;20695;-58
2021/12/07 03:09:18;;;;;;;13.32;12.15;;;0.00;99.90;;;;;;5085004;27;20569;-58
2021/12/07 03:26:45;;;;;;;14.80;13.48;;;0.10;99.90;;;;;;5085010;28;20652;-58
2021/12/07 03:29:25;;;;;;;15.02;13.73;;;0.10;99.90;;;;;;5084779;28;20663;-58
2021/12/07 03:32:06;;;;;;;15.77;14.48;;;0.10;99.90;;;;;;5084098;27;20559;-58
2021/12/07 03:34:45;;;;;;;13.35;12.15;;;0.10;99.90;;;;;;5124749;27;21065;-58
2021/12/07 03:37:25;;;;;;;13.77;12.77;;;0.10;99.90;;;;;;5125662;27;20532;-58
2021/12/07 03:40:06;;;;;;;15.02;13.82;;;0.10;99.90;;;;;;5084581;27;20873;-59
2021/12/07 03:42:46;;;;;;;13.15;12.00;;;0.20;99.90;;;;;;5084381;28;20695;-58
2021/12/07 03:45:26;;;;;;;13.80;12.27;;;0.10;99.90;;;;;;5084238;28;20543;-57
2021/12/07 03:48:08;;;;;;;13.88;12.57;;;0.20;99.90;;;;;;5085040;27;21011;-58
2021/12/07 03:50:47;;;;;;;13.30;12.20;;;0.20;99.90;;;;;;5146535;27;20689;-58
2021/12/07 03:53:28;;;;;;;14.38;13.18;;;0.20;99.90;;;;;;5084343;27;21212;-58
2021/12/07 03:56:08;;;;;;;13.70;12.52;;;0.20;99.90;;;;;;5145643;27;20658;-58
2021/12/07 03:58:48;;;;;;;14.90;13.60;;;0.20;99.90;;;;;;5084849;28;20960;-58
2021/12/07 04:01:28;;;;;;;14.02;12.85;;;0.20;99.90;;;;;;5144430;27;21214;-58
2021/12/07 04:04:08;;;;;;;14.18;12.98;;;0.30;99.90;;;;;;5084742;28;20821;-58
2021/12/07 04:06:48;;;;;;;14.52;13.30;;;0.30;99.90;;;;;;5084903;27;20562;-58
2021/12/07 04:09:29;;;;;;;15.52;14.23;;;0.30;99.90;;;;;;5084989;27;20878;-58
2021/12/07 04:12:09;;;;;;;13.90;12.60;;;0.30;99.90;;;;;;5084830;28;20707;-58
2021/12/07 04:14:49;;;;;;;14.57;13.18;;;0.30;99.90;;;;;;5124933;27;20536;-59
2021/12/07 04:17:28;;;;;;;14.43;13.32;;;0.30;99.90;;;;;;5146865;27;20681;-58
2021/12/07 04:20:12;;;;;;;16.95;15.35;;;0.30;99.90;;;;;;5105148;27;20538;-58
2021/12/07 04:22:51;;;;;;;17.10;15.60;;;0.30;99.90;;;;;;5084454;27;20539;-58
2021/12/07 04:25:33;;;;;;;15.38;13.93;;;0.30;99.90;;;;;;5103601;27;20921;-58
2021/12/07 04:28:13;;;;;;;15.20;13.93;;;0.30;99.90;;;;;;5084849;27;20676;-58
2021/12/07 04:30:53;;;;;;;15.15;13.90;;;0.30;99.90;;;;;;5084765;27;20569;-58
2021/12/07 04:33:33;;;;;;;15.13;13.82;;;0.30;99.90;;;;;;5103548;27;20682;-58
2021/12/07 04:36:13;;;;;;;16.05;14.75;;;0.20;99.90;;;;;;5083549;27;20551;-58
2021/12/07 04:38:52;;;;;;;15.77;14.48;;;0.20;99.90;;;;;;5105696;27;20542;-58
2021/12/07 04:41:33;;;;;;;15.75;14.43;;;0.20;99.90;;;;;;5125901;27;20552;-58
2021/12/07 04:44:13;;;;;;;16.98;15.48;;;0.20;99.90;;;;;;5104386;27;20557;-58
2021/12/07 04:47:05;;;;;;;15.90;14.70;;;0.20;99.90;;;;;;5084665;28;20663;-57
2021/12/07 04:50:02;;;;;;;15.63;14.00;;;0.20;99.90;;;;;;5146727;27;21229;-58
2021/12/07 04:58:35;;;;;;;16.15;14.68;;;0.20;99.90;;;;;;5083884;28;20547;-59
2021/12/07 05:01:14;;;;;;;16.38;15.07;;;0.20;99.90;;;;;;5126531;27;20597;-58
2021/12/07 05:03:57;;;;;;;15.88;14.65;;;0.20;99.90;;;;;;5124619;27;20540;-58
2021/12/07 05:06:42;;;;;;;15.48;14.27;;;0.10;99.90;;;;;;5104731;27;21022;-58
2021/12/07 05:09:39;;;;;;;14.98;13.48;;;0.20;99.90;;;;;;5084791;28;20667;-58
2021/12/07 05:12:37;;;;;;;15.55;14.32;;;0.10;99.90;;;;;;5125285;27;20578;-58
2021/12/07 05:15:24;;;;;;;14.20;13.10;;;0.10;99.90;;;;;;5115677;27;20982;-59
2021/12/07 05:18:18;;;;;;;14.18;12.90;;;0.20;99.90;;;;;;5085073;27;20568;-58
2021/12/07 05:23:58;;;;;;;15.43;14.02;;;0.20;99.90;;;;;;5084470;28;20671;-57
2021/12/07 05:38:21;;;;;;;14.65;13.55;;;0.20;99.90;;;;;;5084522;27;20683;-57
2021/12/07 05:41:01;;;;;;;15.23;14.02;;;0.20;99.90;;;;;;5084144;27;20547;-57
2021/12/07 05:43:41;;;;;;;15.10;13.90;;;0.20;99.90;;;;;;5124194;27;20541;-56
2021/12/07 05:46:20;;;;;;;12.68;11.68;;;0.20;99.90;;;;;;5083525;27;20573;-56
2021/12/07 05:49:00;;;;;;;14.60;13.48;;;0.20;99.90;;;;;;5084496;28;20680;-57
2021/12/07 05:51:40;;;;;;;12.88;11.70;;;0.20;99.90;;;;;;5145965;27;20662;-57
2021/12/07 05:54:20;;;;;;;11.30;10.30;;;0.30;99.90;;;;;;5084451;28;20672;-57
2021/12/07 05:57:00;;;;;;;13.80;12.75;;;0.30;99.90;;;;;;5085007;28;20953;-57
2021/12/07 05:59:40;;;;;;;13.13;12.02;;;0.30;99.90;;;;;;5084834;28;21023;-57
2021/12/07 06:02:19;;;;;;;14.35;13.32;;;0.30;99.90;;;;;;5082645;28;20687;-57
2021/12/07 06:04:59;;;;;;;12.57;11.35;;;0.30;99.90;;;;;;5084199;27;20541;-57
2021/12/07 06:07:39;;;;;;;11.95;11.05;;;0.30;99.90;;;;;;5084774;27;20842;-57
2021/12/07 06:10:20;;;;;;;11.57;10.68;;;0.30;99.90;;;;;;5125899;27;20977;-57
2021/12/07 06:12:59;;;;;;;12.40;11.45;;;0.30;99.90;;;;;;5084263;28;20535;-57
2021/12/07 06:15:43;;;;;;;12.20;11.00;;;0.30;99.90;;;;;;5083808;28;20667;-57
2021/12/07 06:18:22;;;;;;;10.23;9.25;;;0.30;99.90;;;;;;5084770;27;21019;-57
2021/12/07 06:21:02;;;;;;;11.95;11.05;;;0.30;99.90;;;;;;5146412;27;20657;-57
2021/12/07 06:23:41;;;;;;;10.77;9.98;;;0.30;99.90;;;;;;5104384;27;20669;-57
2021/12/07 06:26:21;;;;;;;11.60;10.52;;;0.30;99.90;;;;;;5145690;27;20941;-57
2021/12/07 06:29:01;;;;;;;11.75;10.85;;;0.30;99.90;;;;;;5104965;27;20545;-57
2021/12/07 06:31:41;;;;;;;11.50;10.63;;;0.30;99.90;;;;;;5084389;27;21088;-57
2021/12/07 06:34:21;;;;;;;12.05;11.15;;;0.30;99.90;;;;;;5083853;28;20687;-57
2021/12/07 06:37:01;;;;;;;12.75;11.75;;;0.30;99.90;;;;;;5105206;27;20689;-57
2021/12/07 06:39:40;;;;;;;13.05;12.05;;;0.30;99.90;;;;;;5084672;28;20664;-57
2021/12/07 06:42:20;;;;;;;14.65;13.15;;;0.30;99.90;;;;;;5084662;28;21076;-57
2021/12/07 06:45:00;;;;;;;13.68;12.30;;;0.30;99.90;;;;;;5145560;27;20653;-57
2021/12/07 06:47:40;;;;;;;11.85;10.95;;;0.30;99.90;;;;;;5151123;27;20663;-57
2021/12/07 06:50:20;;;;;;;11.93;11.02;;;0.30;99.90;;;;;;5125408;27;20548;-56
2021/12/07 06:52:59;;;;;;;10.70;9.88;;;0.30;99.90;;;;;;5105010;27;20661;-57
2021/12/07 06:55:39;;;;;;;9.98;9.27;;;0.30;99.90;;;;;;5083986;28;21086;-56
2021/12/07 06:58:19;;;;;;;10.32;9.52;;;0.30;99.90;;;;;;5085251;27;20928;-57
2021/12/07 07:00:59;;;;;;;9.65;8.95;;;0.40;99.90;;;;;;5144815;27;20729;-57
2021/12/07 07:03:40;;;;;;;9.77;9.07;;;0.40;99.90;;;;;;5084441;27;20589;-57
2021/12/07 07:06:19;;;;;;;11.27;10.45;;;0.40;99.90;;;;;;5146560;27;20657;-56
2021/12/07 07:08:58;;;;;;;11.80;10.75;;;0.30;99.90;;;;;;5105344;27;21012;-57
2021/12/07 07:11:40;;;;;;;11.50;10.55;;;0.40;99.90;;;;;;5146395;27;20670;-57
2021/12/07 07:14:20;;;;;;;12.05;10.98;;;0.40;99.90;;;;;;5084685;27;20560;-57
2021/12/07 07:16:59;;;;;;;9.18;8.38;;;0.40;99.90;;;;;;5104512;27;20704;-57
2021/12/07 07:19:40;;;;;;;10.52;9.73;;;0.40;99.90;;;;;;5084994;27;21003;-57
2021/12/07 07:22:19;;;;;;;7.95;7.45;;;0.50;99.90;;;;;;5084639;27;20548;-56
2021/12/07 07:24:59;;;;;;;8.38;7.70;;;0.50;99.90;;;;;;5083931;28;20601;-57
2021/12/07 07:27:39;;;;;;;7.90;7.40;;;0.50;99.90;;;;;;5104849;27;20693;-57
2021/12/07 07:30:20;;;;;;;8.65;7.95;;;0.50;99.90;;;;;;5105281;27;20678;-56
2021/12/07 07:33:00;;;;;;;7.85;7.25;;;0.50;99.90;;;;;;5145817;27;20677;-57
2021/12/07 07:35:40;;;;;;;8.40;7.75;;;0.50;99.90;;;;;;5104764;27;20661;-56
2021/12/07 07:38:21;;;;;;;8.68;8.07;;;0.60;99.90;;;;;;5084964;27;20582;-56
2021/12/07 07:40:59;;;;;;;8.70;8.10;;;0.60;99.90;;;;;;5125554;27;20547;-57
2021/12/07 07:43:39;;;;;;;9.55;8.85;;;0.70;99.90;;;;;;5084162;28;20676;-56
2021/12/07 07:46:19;;;;;;;8.65;8.07;;;0.70;99.90;;;;;;5084265;28;20625;-57
2021/12/07 07:49:00;;;;;;;8.70;8.10;;;0.80;99.90;;;;;;5084882;27;20873;-57
2021/12/07 07:51:39;;;;;;;7.63;6.97;;;0.80;99.90;;;;;;5084605;28;20663;-57
2021/12/07 07:54:19;;;;;;;7.65;7.15;;;0.80;99.90;;;;;;5104375;27;21202;-56
2021/12/07 07:56:58;;;;;;;9.48;8.85;;;0.80;99.90;;;;;;5105023;27;21121;-56
2021/12/07 07:59:39;;;;;;;10.25;9.45;;;0.80;99.90;;;;;;5084468;28;20664;-56
2021/12/07 08:02:18;;;;;;;8.85;8.05;;;0.80;99.90;;;;;;5143926;27;20662;-56
2021/12/07 08:04:58;;;;;;;7.88;7.30;;;0.80;99.90;;;;;;5083758;28;20659;-56
2021/12/07 08:07:39;;;;;;;9.50;8.90;;;0.80;99.90;;;;;;5146423;27;20551;-56
2021/12/07 08:10:22;;;;;;;8.40;7.80;;;0.80;99.90;;;;;;5085008;27;20543;-57
2021/12/07 08:13:05;;;;;;;9.57;8.88;;;0.90;99.90;;;;;;5104830;27;20673;-56
2021/12/07 08:15:44;;;;;;;8.30;7.70;;;1.00;99.90;;;;;;5124629;27;20636;-57
2021/12/07 08:18:24;;;;;;;7.32;6.82;;;1.00;99.90;;;;;;5125531;27;20552;-57
2021/12/07 08:21:03;;;;;;;8.10;7.50;;;1.10;99.90;;;;;;5084771;28;20668;-55
2021/12/07 08:23:44;;;;;;;7.60;7.10;;;1.10;99.90;;;;;;5084164;27;20564;-56
2021/12/07 08:26:25;;;;;;;7.28;6.68;;;1.10;99.90;;;;;;5125098;27;20540;-57
2021/12/07 08:29:05;;;;;;;7.85;7.25;;;1.10;99.90;;;;;;5105611;27;20615;-56
2021/12/07 08:31:45;;;;;;;7.82;7.22;;;1.20;99.90;;;;;;5084735;28;20683;-56
2021/12/07 08:34:24;;;;;;;6.93;6.53;;;1.20;99.90;;;;;;5084503;27;20683;-56
2021/12/07 08:37:04;;;;;;;7.35;6.85;;;1.10;99.90;;;;;;5105545;27;21218;-57
2021/12/07 08:39:44;;;;;;;7.28;6.68;;;1.10;99.90;;;;;;5146465;27;20547;-56
2021/12/07 08:42:23;;;;;;;7.75;7.15;;;1.00;99.90;;;;;;5145955;27;20546;-57
2021/12/07 08:45:05;;;;;;;5.85;5.45;;;1.10;99.90;;;;;;5084054;28;20604;-56
2021/12/07 08:47:47;;;;;;;6.65;6.25;;;1.10;99.90;;;;;;5084863;28;20559;-57
2021/12/07 08:50:30;;;;;;;6.43;6.03;;;1.10;99.90;;;;;;5084672;28;20667;-56
2021/12/07 08:53:12;;;;;;;6.38;5.93;;;1.10;99.90;;;;;;5084366;28;20668;-57
2021/12/07 09:01:49;;;;;;;7.20;6.65;;;1.30;99.90;;;;;;5103452;27;20550;-57
2021/12/07 09:04:28;;;;;;;6.22;5.72;;;1.40;99.90;;;;;;5104184;27;20530;-56
2021/12/07 09:07:09;;;;;;;6.00;5.50;;;1.50;99.90;;;;;;5152288;27;20552;-57
2021/12/07 09:09:50;;;;;;;7.07;6.57;;;1.60;99.90;;;;;;5105494;27;20567;-56
2021/12/07 09:12:30;;;;;;;6.30;5.80;;;1.70;99.90;;;;;;5146213;27;20921;-57
2021/12/07 09:15:11;;;;;;;6.10;5.70;;;1.80;99.90;;;;;;5104513;27;21498;-56
2021/12/07 09:17:51;;;;;;;5.38;4.97;;;1.80;99.90;;;;;;5084955;27;20559;-57
2021/12/07 09:20:31;;;;;;;4.85;4.55;;;1.80;99.90;;;;;;5125479;27;20582;-57
2021/12/07 09:23:11;;;;;;;4.25;3.95;;;1.90;99.90;;;;;;5104822;27;20537;-55
2021/12/07 09:25:51;;;;;;;4.25;3.95;;;2.00;99.90;;;;;;5125175;27;20536;-56
2021/12/07 09:28:30;;;;;;;4.82;4.53;;;2.00;99.90;;;;;;5084994;27;20567;-57
2021/12/07 09:31:10;;;;;;;4.40;4.10;;;2.10;99.90;;;;;;5125734;27;20652;-56
2021/12/07 09:33:51;;;;;;;3.92;3.60;;;2.10;99.90;;;;;;5104790;27;20685;-56
2021/12/07 09:36:31;;;;;;;3.63;3.35;;;2.20;99.90;;;;;;5145904;27;20546;-56
2021/12/07 09:39:13;;;;;;;3.17;2.97;;;2.20;99.90;;;;;;5146442;27;20666;-56
2021/12/07 09:41:53;;;;;;;3.33;3.03;;;2.20;99.90;;;;;;5084469;28;20660;-56
2021/12/07 09:44:33;;;;;;;4.00;3.70;;;2.20;99.90;;;;;;5104323;27;20693;-57
2021/12/07 09:47:12;;;;;;;5.35;3.72;;;2.20;99.90;;;;;;5104700;27;20615;-56
2021/12/07 09:49:52;;;;;;;3.60;3.28;;;2.30;99.90;;;;;;5084462;28;20558;-56
2021/12/07 09:52:32;;;;;;;2.80;2.60;;;2.40;99.90;;;;;;5084181;27;20560;-56
2021/12/07 09:55:13;;;;;;;3.53;2.92;;;2.30;99.90;;;;;;5084072;27;21088;-56
2021/12/07 09:57:53;;;;;;;3.15;2.85;;;2.40;99.90;;;;;;5084927;28;20563;-56
2021/12/07 10:00:34;;;;;;;3.97;2.50;;;2.40;99.90;;;;;;5082735;27;20551;-56
2021/12/07 10:03:13;;;;;;;4.93;2.80;;;2.50;99.90;;;;;;5084694;27;21028;-56
2021/12/07 10:05:54;;;;;;;3.05;2.72;;;2.50;99.90;;;;;;5084289;28;20664;-57
2021/12/07 10:08:34;;;;;;;3.95;3.65;;;2.60;99.90;;;;;;5105449;27;20697;-56
2021/12/07 10:11:14;;;;;;;4.55;4.15;;;2.50;99.90;;;;;;5084772;27;20620;-56
2021/12/07 10:13:54;;;;;;;5.65;5.15;;;2.50;99.90;;;;;;5084121;28;20671;-56
2021/12/07 10:16:34;;;;;;;4.70;4.22;;;2.50;99.90;;;;;;5084370;27;20903;-56
2021/12/07 10:19:26;;;;;;;4.95;4.55;;;2.50;99.90;;;;;;5084351;27;20557;-56
2021/12/07 10:22:09;;;;;;;3.42;2.40;;;2.50;99.90;;;;;;5105115;27;21051;-57
2021/12/07 10:24:53;;;;;;;4.25;3.45;;;2.50;99.90;;;;;;5083931;27;20567;-56
2021/12/07 10:27:36;;;;;;;4.03;3.67;;;2.50;99.90;;;;;;5084843;28;20671;-56
2021/12/07 10:30:21;;;;;;;6.28;5.65;;;2.50;99.90;;;;;;5084635;27;20547;-56
2021/12/07 10:33:04;;;;;;;8.95;8.07;;;2.50;99.90;;;;;;5085244;28;20655;-57
2021/12/07 10:35:44;;;;;;;4.15;3.65;;;2.50;99.90;;;;;;5145297;27;20587;-56
2021/12/07 10:38:24;;;;;;;2.75;2.33;;;2.60;99.90;;;;;;5125629;27;20582;-56
2021/12/07 10:41:06;;;;;;;15.35;8.82;;;2.60;99.90;;;;;;5105160;27;20662;-56
2021/12/07 10:43:53;;;;;;;15.38;7.80;;;2.60;99.90;;;;;;5084373;28;20684;-56
2021/12/07 10:46:42;;;;;;;11.27;7.32;;;2.60;99.90;;;;;;5104434;27;20542;-56
2021/12/07 10:49:33;;;;;;;6.47;3.42;;;2.50;99.90;;;;;;5105109;27;20552;-56
2021/12/07 10:52:23;;;;;;;3.65;2.72;;;2.50;99.90;;;;;;5105018;27;20685;-56
2021/12/07 10:55:09;;;;;;;9.73;5.78;;;2.50;99.90;;;;;;5083525;27;20896;-56
2021/12/07 10:57:52;;;;;;;6.97;4.20;;;2.50;99.90;;;;;;5084773;28;20679;-56
2021/12/07 11:00:36;;;;;;;8.90;5.40;;;2.60;99.90;;;;;;5104095;27;20537;-56
2021/12/07 11:03:20;;;;;;;6.90;4.47;;;2.80;99.90;;;;;;5084420;28;20664;-57
2021/12/07 11:06:01;;;;;;;9.57;4.90;;;2.90;99.90;;;;;;5145964;27;20545;-56
2021/12/07 11:08:41;;;;;;;6.55;4.50;;;2.90;99.90;;;;;;5146253;27;20673;-56
2021/12/07 11:11:29;;;;;;;11.90;5.35;;;2.90;99.90;;;;;;5085259;27;20528;-56
2021/12/07 11:14:09;;;;;;;3.95;2.45;;;2.80;99.90;;;;;;5145968;27;21108;-56
2021/12/07 11:16:49;;;;;;;8.93;5.53;;;2.90;99.90;;;;;;5105408;27;20558;-56
2021/12/07 11:19:31;;;;;;;3.58;3.28;;;2.90;99.90;;;;;;5084691;27;20973;-56
2021/12/07 11:22:14;;;;;;;5.70;3.17;;;2.80;99.90;;;;;;5084757;28;20668;-56
2021/12/07 11:24:54;;;;;;;3.05;2.70;;;2.80;99.90;;;;;;5084217;27;20540;-56
2021/12/07 11:30:32;;;;;;;2.58;1.85;;;2.90;99.90;;;;;;5084887;28;20545;-56
2021/12/07 11:33:23;;;;;;;3.85;2.30;;;2.90;99.90;;;;;;5084935;27;20554;-56
2021/12/07 11:36:16;;;;;;;3.20;1.77;;;2.90;99.90;;;;;;5084268;27;20563;-56
2021/12/07 11:38:58;;;;;;;1.88;1.77;;;2.90;99.90;;;;;;5125927;27;20890;-56
2021/12/07 11:41:38;;;;;;;2.35;2.10;;;3.00;99.90;;;;;;5084920;28;21034;-56
2021/12/07 11:44:22;;;;;;;2.85;2.20;;;3.10;99.90;;;;;;5145877;27;20671;-56
2021/12/07 11:47:03;;;;;;;1.90;1.80;;;3.20;99.90;;;;;;5105233;27;20550;-56
2021/12/07 11:49:43;;;;;;;1.88;1.67;;;3.20;99.90;;;;;;5085230;27;20544;-56
2021/12/07 11:52:23;;;;;;;2.33;1.73;;;3.20;99.90;;;;;;5104709;27;20673;-56
2021/12/07 11:55:04;;;;;;;3.85;1.75;;;3.30;99.90;;;;;;5145572;27;20599;-56
2021/12/07 11:57:44;;;;;;;3.72;2.13;;;3.40;99.90;;;;;;5146315;27;20666;-56
2021/12/07 12:00:28;;;;;;;1.70;1.60;;;3.50;99.90;;;;;;5123824;27;20568;-56
2021/12/07 12:03:11;;;;;;;2.03;1.83;;;3.60;99.90;;;;;;5104801;27;20669;-56
2021/12/07 12:05:53;;;;;;;1.83;1.38;;;3.70;99.90;;;;;;5104625;27;21186;-56
2021/12/07 12:08:33;;;;;;;1.52;1.42;;;3.60;99.90;;;;;;5125341;27;20991;-56
2021/12/07 12:11:27;;;;;;;1.83;1.60;;;3.60;99.90;;;;;;5125590;27;20947;-56
2021/12/07 12:14:20;;;;;;;4.18;1.50;;;3.50;99.90;;;;;;5104544;27;20546;-57
2021/12/07 12:17:09;;;;;;;4.18;1.67;;;3.40;99.90;;;;;;5080743;27;20567;-57
2021/12/07 12:20:05;;;;;;;2.15;1.70;;;3.40;99.90;;;;;;5135414;27;21224;-56
2021/12/07 12:22:50;;;;;;;1.77;1.58;;;3.50;99.90;;;;;;5103674;27;21077;-56
2021/12/07 12:25:30;;;;;;;1.45;1.35;;;3.40;99.90;;;;;;5103069;27;20674;-57
2021/12/07 12:28:09;;;;;;;1.58;1.48;;;3.30;99.90;;;;;;5122358;27;20707;-57
2021/12/07 12:30:49;;;;;;;1.70;1.60;;;3.30;99.90;;;;;;5083676;28;20683;-57
2021/12/07 12:33:46;;;;;;;2.70;1.73;;;3.20;99.90;;;;;;5082829;28;20967;-56
2021/12/07 12:36:27;;;;;;;2.40;1.60;;;3.10;99.90;;;;;;5124065;27;20535;-56
2021/12/07 12:39:09;;;;;;;1.75;1.50;;;3.10;99.90;;;;;;5136564;27;20949;-56
2021/12/07 12:42:00;;;;;;;2.45;1.95;;;3.10;99.90;;;;;;5145356;27;20538;-56
2021/12/07 12:44:40;;;;;;;1.98;1.88;;;3.20;99.90;;;;;;5103144;27;21070;-57
2021/12/07 12:47:26;;;;;;;3.17;2.13;;;3.20;99.90;;;;;;5081271;27;20563;-57
2021/12/07 12:50:19;;;;;;;3.60;1.80;;;3.10;99.90;;;;;;5137156;27;20544;-56
2021/12/07 12:53:02;;;;;;;2.42;2.13;;;3.20;99.90;;;;;;5165842;22;20539;-57
2021/12/07 12:55:48;;;;;;;2.00;1.90;;;3.20;99.90;;;;;;5103887;27;20545;-57
2021/12/07 12:58:42;;;;;;;2.33;1.60;;;3.20;99.90;;;;;;5083944;27;21311;-57
2021/12/07 13:01:26;;;;;;;3.88;1.90;;;3.20;99.90;;;;;;5076874;27;20575;-56
2021/12/07 13:04:11;;;;;;;2.22;1.70;;;3.20;99.90;;;;;;5136272;27;20986;-57
2021/12/07 13:07:01;;;;;;;3.05;2.17;;;3.20;99.90;;;;;;5083987;27;20825;-57
2021/12/07 13:09:43;;;;;;;2.42;1.98;;;3.20;99.90;;;;;;5083226;28;21028;-57
2021/12/07 13:12:25;;;;;;;1.98;1.77;;;3.20;99.90;;;;;;5075896;27;20565;-57
2021/12/07 13:15:07;;;;;;;2.15;1.95;;;3.30;99.90;;;;;;5135310;27;21184;-57
2021/12/07 13:17:48;;;;;;;3.05;2.10;;;3.40;99.90;;;;;;5103946;27;21023;-57
2021/12/07 13:20:30;;;;;;;2.35;2.08;;;3.50;99.90;;;;;;5103489;27;20666;-57
2021/12/07 13:23:13;;;;;;;2.67;2.00;;;3.60;99.90;;;;;;5073016;27;20932;-57
2021/12/07 13:25:53;;;;;;;2.28;1.98;;;3.60;99.90;;;;;;5135351;27;21205;-57
2021/12/07 13:28:34;;;;;;;4.05;2.65;;;3.40;99.90;;;;;;5083944;27;21072;-57
2021/12/07 13:31:18;;;;;;;3.10;2.75;;;3.40;99.90;;;;;;5080763;28;20685;-57
2021/12/07 13:33:58;;;;;;;2.83;2.63;;;3.50;99.90;;;;;;5144764;27;20538;-57
2021/12/07 13:36:49;;;;;;;3.28;2.97;;;3.50;99.90;;;;;;5145067;27;20546;-57
2021/12/07 13:39:38;;;;;;;3.13;2.80;;;3.60;99.90;;;;;;5083898;28;20723;-57
2021/12/07 13:42:29;;;;;;;3.00;2.70;;;3.80;99.90;;;;;;5084535;28;20680;-57
2021/12/07 13:45:10;;;;;;;3.03;2.72;;;3.90;99.90;;;;;;5083840;28;21184;-57
2021/12/07 13:47:53;;;;;;;1.95;1.80;;;4.10;99.90;;;;;;5084953;27;20553;-57
2021/12/07 13:50:33;;;;;;;3.05;2.40;;;4.10;99.90;;;;;;5084642;28;20679;-57
2021/12/07 13:53:12;;;;;;;2.78;2.50;;;4.00;99.90;;;;;;5105078;27;20673;-57
2021/12/07 13:55:52;;;;;;;5.03;3.20;;;3.80;99.90;;;;;;5104891;27;21006;-56
2021/12/07 13:58:53;;;;;;;4.13;2.80;;;3.80;99.90;;;;;;5105766;27;20590;-57
2021/12/07 14:01:35;;;;;;;2.72;2.38;;;3.90;99.90;;;;;;5083903;27;21087;-57
2021/12/07 14:04:14;;;;;;;2.33;2.13;;;3.90;99.90;;;;;;5125885;27;20570;-57
2021/12/07 14:06:54;;;;;;;2.58;2.03;;;3.80;99.90;;;;;;5126299;27;21027;-57
2021/12/07 14:09:34;;;;;;;2.67;1.92;;;3.80;99.90;;;;;;5085336;28;20656;-57
2021/12/07 14:12:14;;;;;;;4.35;3.13;;;3.60;99.90;;;;;;5085116;28;20691;-57
2021/12/07 14:14:53;;;;;;;2.80;2.38;;;3.50;99.90;;;;;;5104414;27;20661;-57
2021/12/07 14:17:40;;;;;;;3.35;2.50;;;3.40;99.90;;;;;;5085377;28;20676;-57
2021/12/07 14:20:36;;;;;;;3.15;2.50;;;3.30;99.90;;;;;;5085014;28;20545;-57
2021/12/07 14:23:22;;;;;;;2.45;2.22;;;3.20;99.90;;;;;;5125229;27;20552;-57
2021/12/07 14:26:04;;;;;;;3.25;2.78;;;3.20;99.90;;;;;;5084264;27;21011;-57
2021/12/07 14:28:45;;;;;;;2.95;2.28;;;3.10;99.90;;;;;;5105436;27;20665;-57
2021/12/07 14:31:28;;;;;;;3.80;2.78;;;3.10;99.90;;;;;;5126176;27;20543;-55
2021/12/07 14:34:10;;;;;;;3.15;2.50;;;3.00;99.90;;;;;;5084910;28;20663;-57
2021/12/07 14:36:51;;;;;;;5.00;2.70;;;2.80;99.90;;;;;;5085416;28;20656;-57
2021/12/07 14:39:32;;;;;;;4.57;3.97;;;2.80;99.90;;;;;;5085005;27;20531;-57
2021/12/07 14:42:14;;;;;;;6.20;4.10;;;2.70;99.90;;;;;;5084434;27;20696;-58
2021/12/07 14:44:56;;;;;;;4.82;4.20;;;2.60;99.90;;;;;;5083995;27;20532;-57
2021/12/07 14:47:36;;;;;;;3.50;2.67;;;2.60;99.90;;;;;;5125571;27;20664;-57
2021/12/07 14:50:16;;;;;;;7.50;5.38;;;2.50;99.90;;;;;;5084691;27;20551;-57
2021/12/07 14:52:56;;;;;;;8.93;6.32;;;2.50;99.90;;;;;;5164557;27;20553;-57
2021/12/07 14:55:39;;;;;;;6.35;3.80;;;2.40;99.90;;;;;;5104192;27;20526;-57
2021/12/07 14:58:30;;;;;;;4.03;3.67;;;2.30;99.90;;;;;;5085153;28;21027;-57
2021/12/07 15:01:12;;;;;;;4.50;4.10;;;2.30;99.90;;;;;;5084151;28;20680;-57
2021/12/07 15:03:54;;;;;;;5.45;4.65;;;2.30;99.90;;;;;;5084460;28;20667;-57
2021/12/07 15:06:34;;;;;;;4.13;3.42;;;2.20;99.90;;;;;;5084093;27;20567;-57
2021/12/07 15:09:15;;;;;;;5.10;4.57;;;2.20;99.90;;;;;;5146978;27;20661;-57
2021/12/07 15:11:55;;;;;;;4.30;3.13;;;2.10;99.90;;;;;;5084544;28;20671;-57